sensor_id;sensor_type;location;lat;lon;timestamp;temperature;humidity
37052;DHT22;22964;52.272;13.356;2024-01-11T00:01:37;-2.90;61.70
37052;DHT22;22964;52.272;13.356;2024-01-11T00:04:03;-3.00;61.70
37052;DHT22;22964;52.272;13.356;2024-01-11T00:06:29;-3.00;61.70
37052;DHT22;22964;52.272;13.356;2024-01-11T00:08:55;-3.00;61.70
37052;DHT22;22964;52.272;13.356;2024-01-11T00:11:20;-3.00;61.80
37052;DHT22;22964;52.272;13.356;2024-01-11T00:13:46;-3.00;61.80
37052;DHT22;22964;52.272;13.356;2024-01-11T00:16:11;-3.10;61.70
37052;DHT22;22964;52.272;13.356;2024-01-11T00:18:37;-3.10;62.60
37052;DHT22;22964;52.272;13.356;2024-01-11T00:21:03;-3.10;61.80
37052;DHT22;22964;52.272;13.356;2024-01-11T00:23:28;-3.10;61.90
37052;DHT22;22964;52.272;13.356;2024-01-11T00:25:54;-3.10;61.90
37052;DHT22;22964;52.272;13.356;2024-01-11T00:28:20;-3.10;61.90
37052;DHT22;22964;52.272;13.356;2024-01-11T00:30:45;-3.20;61.90
37052;DHT22;22964;52.272;13.356;2024-01-11T00:33:11;-3.10;62.00
37052;DHT22;22964;52.272;13.356;2024-01-11T00:35:37;-3.20;62.00
37052;DHT22;22964;52.272;13.356;2024-01-11T00:38:03;-3.20;62.00
37052;DHT22;22964;52.272;13.356;2024-01-11T00:40:28;-3.20;62.10
37052;DHT22;22964;52.272;13.356;2024-01-11T00:42:54;-3.20;62.10
37052;DHT22;22964;52.272;13.356;2024-01-11T00:45:20;-3.20;62.10
37052;DHT22;22964;52.272;13.356;2024-01-11T00:47:45;-3.20;62.10
37052;DHT22;22964;52.272;13.356;2024-01-11T00:50:11;-3.30;62.10
37052;DHT22;22964;52.272;13.356;2024-01-11T00:52:37;-3.30;62.20
37052;DHT22;22964;52.272;13.356;2024-01-11T00:55:04;-3.30;62.20
37052;DHT22;22964;52.272;13.356;2024-01-11T00:57:30;-3.30;62.30
37052;DHT22;22964;52.272;13.356;2024-01-11T00:59:55;-3.30;62.30
37052;DHT22;22964;52.272;13.356;2024-01-11T01:02:21;-3.30;62.40
37052;DHT22;22964;52.272;13.356;2024-01-11T01:04:47;-3.30;62.30
37052;DHT22;22964;52.272;13.356;2024-01-11T01:07:12;-3.30;62.30
37052;DHT22;22964;52.272;13.356;2024-01-11T01:09:38;-3.40;62.20
37052;DHT22;22964;52.272;13.356;2024-01-11T01:12:04;-3.40;62.30
37052;DHT22;22964;52.272;13.356;2024-01-11T01:14:30;-3.40;62.30
37052;DHT22;22964;52.272;13.356;2024-01-11T01:16:56;-3.40;62.30
37052;DHT22;22964;52.272;13.356;2024-01-11T01:19:22;-3.50;62.40
37052;DHT22;22964;52.272;13.356;2024-01-11T01:21:47;-3.50;62.40
37052;DHT22;22964;52.272;13.356;2024-01-11T01:24:13;-3.50;62.50
37052;DHT22;22964;52.272;13.356;2024-01-11T01:26:39;-3.50;62.50
37052;DHT22;22964;52.272;13.356;2024-01-11T01:29:05;-3.50;62.50
37052;DHT22;22964;52.272;13.356;2024-01-11T01:31:31;-3.50;62.50
37052;DHT22;22964;52.272;13.356;2024-01-11T01:34:03;-3.50;62.50
37052;DHT22;22964;52.272;13.356;2024-01-11T01:36:29;-3.50;62.40
37052;DHT22;22964;52.272;13.356;2024-01-11T01:38:54;-3.60;62.40
37052;DHT22;22964;52.272;13.356;2024-01-11T01:41:20;-3.60;62.40
37052;DHT22;22964;52.272;13.356;2024-01-11T01:43:46;-3.60;62.40
37052;DHT22;22964;52.272;13.356;2024-01-11T01:46:16;-3.60;62.40
37052;DHT22;22964;52.272;13.356;2024-01-11T01:48:45;-3.70;62.40
37052;DHT22;22964;52.272;13.356;2024-01-11T01:51:10;-3.60;62.60
37052;DHT22;22964;52.272;13.356;2024-01-11T01:53:36;-3.70;62.50
37052;DHT22;22964;52.272;13.356;2024-01-11T01:56:02;-3.70;62.60
37052;DHT22;22964;52.272;13.356;2024-01-11T01:58:28;-3.70;62.70
37052;DHT22;22964;52.272;13.356;2024-01-11T02:00:54;-3.70;62.70
37052;DHT22;22964;52.272;13.356;2024-01-11T02:03:20;-3.70;62.80
37052;DHT22;22964;52.272;13.356;2024-01-11T02:05:47;-3.70;62.90
37052;DHT22;22964;52.272;13.356;2024-01-11T02:08:16;-3.70;63.00
37052;DHT22;22964;52.272;13.356;2024-01-11T02:10:44;-3.70;63.00
37052;DHT22;22964;52.272;13.356;2024-01-11T02:13:11;-3.80;62.90
37052;DHT22;22964;52.272;13.356;2024-01-11T02:15:38;-3.70;63.00
37052;DHT22;22964;52.272;13.356;2024-01-11T02:18:04;-3.70;63.10
37052;DHT22;22964;52.272;13.356;2024-01-11T02:20:31;-3.80;63.10
37052;DHT22;22964;52.272;13.356;2024-01-11T02:23:01;-3.80;63.30
37052;DHT22;22964;52.272;13.356;2024-01-11T02:25:28;-3.70;63.30
37052;DHT22;22964;52.272;13.356;2024-01-11T02:27:53;-3.70;63.30
37052;DHT22;22964;52.272;13.356;2024-01-11T02:30:19;-3.70;63.40
37052;DHT22;22964;52.272;13.356;2024-01-11T02:32:46;-3.70;63.50
37052;DHT22;22964;52.272;13.356;2024-01-11T02:35:13;-3.70;63.50
37052;DHT22;22964;52.272;13.356;2024-01-11T02:37:40;-3.70;63.50
37052;DHT22;22964;52.272;13.356;2024-01-11T02:40:09;-3.60;63.50
37052;DHT22;22964;52.272;13.356;2024-01-11T02:42:35;-3.70;63.50
37052;DHT22;22964;52.272;13.356;2024-01-11T02:45:04;-3.70;63.50
37052;DHT22;22964;52.272;13.356;2024-01-11T02:47:30;-3.60;63.50
37052;DHT22;22964;52.272;13.356;2024-01-11T02:49:56;-3.70;63.40
37052;DHT22;22964;52.272;13.356;2024-01-11T02:52:22;-3.60;63.40
37052;DHT22;22964;52.272;13.356;2024-01-11T02:54:48;-3.60;63.40
37052;DHT22;22964;52.272;13.356;2024-01-11T02:57:14;-3.60;63.50
37052;DHT22;22964;52.272;13.356;2024-01-11T02:59:40;-3.60;63.50
37052;DHT22;22964;52.272;13.356;2024-01-11T03:02:06;-3.60;63.60
37052;DHT22;22964;52.272;13.356;2024-01-11T03:04:32;-3.60;63.60
37052;DHT22;22964;52.272;13.356;2024-01-11T03:06:57;-3.60;63.80
37052;DHT22;22964;52.272;13.356;2024-01-11T03:09:23;-3.60;63.90
37052;DHT22;22964;52.272;13.356;2024-01-11T03:11:49;-3.60;64.00
37052;DHT22;22964;52.272;13.356;2024-01-11T03:14:14;-3.50;65.10
37052;DHT22;22964;52.272;13.356;2024-01-11T03:16:40;-3.50;64.50
37052;DHT22;22964;52.272;13.356;2024-01-11T03:19:07;-3.50;64.60
37052;DHT22;22964;52.272;13.356;2024-01-11T03:21:32;-3.40;64.90
37052;DHT22;22964;52.272;13.356;2024-01-11T03:23:58;-3.40;65.10
37052;DHT22;22964;52.272;13.356;2024-01-11T03:26:25;-3.30;65.30
37052;DHT22;22964;52.272;13.356;2024-01-11T03:28:51;-3.30;65.40
37052;DHT22;22964;52.272;13.356;2024-01-11T03:31:16;-3.30;65.50
37052;DHT22;22964;52.272;13.356;2024-01-11T03:33:42;-3.20;65.70
37052;DHT22;22964;52.272;13.356;2024-01-11T03:36:11;-3.20;65.70
37052;DHT22;22964;52.272;13.356;2024-01-11T03:38:38;-3.20;65.70
37052;DHT22;22964;52.272;13.356;2024-01-11T03:41:10;-3.10;65.80
37052;DHT22;22964;52.272;13.356;2024-01-11T03:43:36;-3.10;65.90
37052;DHT22;22964;52.272;13.356;2024-01-11T03:46:03;-3.00;66.00
37052;DHT22;22964;52.272;13.356;2024-01-11T03:48:29;-3.00;66.00
37052;DHT22;22964;52.272;13.356;2024-01-11T03:50:55;-2.90;66.10
37052;DHT22;22964;52.272;13.356;2024-01-11T03:53:20;-2.90;66.30
37052;DHT22;22964;52.272;13.356;2024-01-11T03:55:46;-2.90;66.30
37052;DHT22;22964;52.272;13.356;2024-01-11T03:58:12;-2.90;66.40
37052;DHT22;22964;52.272;13.356;2024-01-11T04:00:37;-2.90;66.50
37052;DHT22;22964;52.272;13.356;2024-01-11T04:03:03;-2.80;66.50
37052;DHT22;22964;52.272;13.356;2024-01-11T04:05:29;-2.80;66.50
37052;DHT22;22964;52.272;13.356;2024-01-11T04:07:55;-2.80;66.50
37052;DHT22;22964;52.272;13.356;2024-01-11T04:10:20;-2.80;66.40
37052;DHT22;22964;52.272;13.356;2024-01-11T04:12:46;-2.70;66.40
37052;DHT22;22964;52.272;13.356;2024-01-11T04:15:12;-2.70;66.30
37052;DHT22;22964;52.272;13.356;2024-01-11T04:17:39;-2.70;66.20
37052;DHT22;22964;52.272;13.356;2024-01-11T04:20:06;-2.70;66.10
37052;DHT22;22964;52.272;13.356;2024-01-11T04:22:32;-2.70;66.10
37052;DHT22;22964;52.272;13.356;2024-01-11T04:24:58;-2.80;65.90
37052;DHT22;22964;52.272;13.356;2024-01-11T04:27:23;-2.70;66.00
37052;DHT22;22964;52.272;13.356;2024-01-11T04:29:49;-2.80;65.90
37052;DHT22;22964;52.272;13.356;2024-01-11T04:32:15;-2.80;65.80
37052;DHT22;22964;52.272;13.356;2024-01-11T04:34:40;-2.80;65.70
37052;DHT22;22964;52.272;13.356;2024-01-11T04:37:06;-2.80;65.70
37052;DHT22;22964;52.272;13.356;2024-01-11T04:39:33;-2.80;65.60
37052;DHT22;22964;52.272;13.356;2024-01-11T04:41:59;-2.80;65.60
37052;DHT22;22964;52.272;13.356;2024-01-11T04:44:26;-2.80;65.70
37052;DHT22;22964;52.272;13.356;2024-01-11T04:46:52;-2.90;65.60
37052;DHT22;22964;52.272;13.356;2024-01-11T04:49:17;-2.90;65.60
37052;DHT22;22964;52.272;13.356;2024-01-11T04:51:43;-2.90;65.40
37052;DHT22;22964;52.272;13.356;2024-01-11T04:54:08;-2.90;65.40
37052;DHT22;22964;52.272;13.356;2024-01-11T04:56:34;-2.90;65.40
37052;DHT22;22964;52.272;13.356;2024-01-11T04:59:00;-2.90;65.50
37052;DHT22;22964;52.272;13.356;2024-01-11T05:01:26;-2.90;66.40
37052;DHT22;22964;52.272;13.356;2024-01-11T05:03:51;-2.90;65.80
37052;DHT22;22964;52.272;13.356;2024-01-11T05:06:18;-2.90;65.80
37052;DHT22;22964;52.272;13.356;2024-01-11T05:08:49;-2.90;65.90
37052;DHT22;22964;52.272;13.356;2024-01-11T05:11:20;-2.90;66.10
37052;DHT22;22964;52.272;13.356;2024-01-11T05:13:45;-2.90;66.20
37052;DHT22;22964;52.272;13.356;2024-01-11T05:16:20;-2.90;66.30
37052;DHT22;22964;52.272;13.356;2024-01-11T05:18:46;-2.80;66.40
37052;DHT22;22964;52.272;13.356;2024-01-11T05:21:12;-2.80;67.30
37052;DHT22;22964;52.272;13.356;2024-01-11T05:23:38;-2.80;66.60
37052;DHT22;22964;52.272;13.356;2024-01-11T05:26:03;-2.80;66.70
37052;DHT22;22964;52.272;13.356;2024-01-11T05:28:29;-2.70;66.80
37052;DHT22;22964;52.272;13.356;2024-01-11T05:30:55;-2.70;66.80
37052;DHT22;22964;52.272;13.356;2024-01-11T05:33:20;-2.70;66.80
37052;DHT22;22964;52.272;13.356;2024-01-11T05:35:46;-2.70;66.70
37052;DHT22;22964;52.272;13.356;2024-01-11T05:38:12;-2.60;66.80
37052;DHT22;22964;52.272;13.356;2024-01-11T05:40:37;-2.60;66.90
37052;DHT22;22964;52.272;13.356;2024-01-11T05:43:03;-2.60;67.00
37052;DHT22;22964;52.272;13.356;2024-01-11T05:45:29;-2.60;67.00
37052;DHT22;22964;52.272;13.356;2024-01-11T05:47:55;-2.50;67.00
37052;DHT22;22964;52.272;13.356;2024-01-11T05:50:20;-2.60;67.00
37052;DHT22;22964;52.272;13.356;2024-01-11T05:52:46;-2.50;67.20
37052;DHT22;22964;52.272;13.356;2024-01-11T05:55:12;-2.50;67.30
37052;DHT22;22964;52.272;13.356;2024-01-11T05:57:37;-2.50;67.30
37052;DHT22;22964;52.272;13.356;2024-01-11T06:00:04;-2.50;67.30
37052;DHT22;22964;52.272;13.356;2024-01-11T06:02:32;-2.50;67.40
37052;DHT22;22964;52.272;13.356;2024-01-11T06:04:57;-2.40;67.40
37052;DHT22;22964;52.272;13.356;2024-01-11T06:07:23;-2.40;67.50
37052;DHT22;22964;52.272;13.356;2024-01-11T06:09:49;-2.30;67.60
37052;DHT22;22964;52.272;13.356;2024-01-11T06:12:14;-2.30;67.80
37052;DHT22;22964;52.272;13.356;2024-01-11T06:14:40;-2.30;67.70
37052;DHT22;22964;52.272;13.356;2024-01-11T06:17:06;-2.30;67.90
37052;DHT22;22964;52.272;13.356;2024-01-11T06:19:32;-2.20;67.90
37052;DHT22;22964;52.272;13.356;2024-01-11T06:21:58;-2.20;67.90
37052;DHT22;22964;52.272;13.356;2024-01-11T06:24:24;-2.20;68.90
37052;DHT22;22964;52.272;13.356;2024-01-11T06:26:49;-2.20;68.10
37052;DHT22;22964;52.272;13.356;2024-01-11T06:29:15;-2.20;68.30
37052;DHT22;22964;52.272;13.356;2024-01-11T06:31:41;-2.10;68.30
37052;DHT22;22964;52.272;13.356;2024-01-11T06:34:06;-2.10;68.40
37052;DHT22;22964;52.272;13.356;2024-01-11T06:36:32;-2.10;68.40
37052;DHT22;22964;52.272;13.356;2024-01-11T06:38:58;-2.00;68.50
37052;DHT22;22964;52.272;13.356;2024-01-11T06:41:23;-2.00;68.50
37052;DHT22;22964;52.272;13.356;2024-01-11T06:43:49;-2.00;68.40
37052;DHT22;22964;52.272;13.356;2024-01-11T06:46:20;-2.00;68.50
37052;DHT22;22964;52.272;13.356;2024-01-11T06:48:47;-2.00;68.60
37052;DHT22;22964;52.272;13.356;2024-01-11T06:51:16;-2.00;68.60
37052;DHT22;22964;52.272;13.356;2024-01-11T06:53:45;-1.90;68.60
37052;DHT22;22964;52.272;13.356;2024-01-11T06:56:18;-1.90;69.60
37052;DHT22;22964;52.272;13.356;2024-01-11T06:58:46;-1.90;68.70
37052;DHT22;22964;52.272;13.356;2024-01-11T07:01:13;-1.90;68.70
37052;DHT22;22964;52.272;13.356;2024-01-11T07:03:39;-1.90;69.00
37052;DHT22;22964;52.272;13.356;2024-01-11T07:06:05;-1.80;69.20
37052;DHT22;22964;52.272;13.356;2024-01-11T07:08:31;-1.80;69.20
37052;DHT22;22964;52.272;13.356;2024-01-11T07:11:01;-1.80;69.20
37052;DHT22;22964;52.272;13.356;2024-01-11T07:13:30;-1.70;69.50
37052;DHT22;22964;52.272;13.356;2024-01-11T07:15:57;-1.70;69.50
37052;DHT22;22964;52.272;13.356;2024-01-11T07:18:24;-1.70;69.30
37052;DHT22;22964;52.272;13.356;2024-01-11T07:20:50;-1.70;69.40
37052;DHT22;22964;52.272;13.356;2024-01-11T07:23:16;-1.60;70.50
37052;DHT22;22964;52.272;13.356;2024-01-11T07:25:42;-1.60;69.60
37052;DHT22;22964;52.272;13.356;2024-01-11T07:28:08;-1.60;69.50
37052;DHT22;22964;52.272;13.356;2024-01-11T07:30:34;-1.60;69.60
37052;DHT22;22964;52.272;13.356;2024-01-11T07:33:00;-1.60;69.60
37052;DHT22;22964;52.272;13.356;2024-01-11T07:35:26;-1.50;69.70
37052;DHT22;22964;52.272;13.356;2024-01-11T07:37:52;-1.60;69.60
37052;DHT22;22964;52.272;13.356;2024-01-11T07:40:17;-1.50;69.70
37052;DHT22;22964;52.272;13.356;2024-01-11T07:42:43;-1.50;69.90
37052;DHT22;22964;52.272;13.356;2024-01-11T07:45:10;-1.50;69.90
37052;DHT22;22964;52.272;13.356;2024-01-11T07:47:36;-1.40;69.80
37052;DHT22;22964;52.272;13.356;2024-01-11T07:50:04;-1.40;69.90
37052;DHT22;22964;52.272;13.356;2024-01-11T07:52:32;-1.40;69.90
37052;DHT22;22964;52.272;13.356;2024-01-11T07:54:58;-1.30;70.10
37052;DHT22;22964;52.272;13.356;2024-01-11T07:57:32;-1.30;70.90
37052;DHT22;22964;52.272;13.356;2024-01-11T07:59:58;-1.30;70.10
37052;DHT22;22964;52.272;13.356;2024-01-11T08:02:25;-1.30;70.20
37052;DHT22;22964;52.272;13.356;2024-01-11T08:04:51;-1.20;70.30
37052;DHT22;22964;52.272;13.356;2024-01-11T08:07:16;-1.20;70.30
37052;DHT22;22964;52.272;13.356;2024-01-11T08:09:42;-1.20;70.30
37052;DHT22;22964;52.272;13.356;2024-01-11T08:12:12;-1.20;70.20
37052;DHT22;22964;52.272;13.356;2024-01-11T08:14:39;-1.10;70.20
37052;DHT22;22964;52.272;13.356;2024-01-11T08:17:05;-1.10;70.20
37052;DHT22;22964;52.272;13.356;2024-01-11T08:19:31;-1.10;70.40
37052;DHT22;22964;52.272;13.356;2024-01-11T08:21:58;-1.10;70.70
37052;DHT22;22964;52.272;13.356;2024-01-11T08:24:23;-1.00;70.80
37052;DHT22;22964;52.272;13.356;2024-01-11T08:26:51;-1.00;71.00
37052;DHT22;22964;52.272;13.356;2024-01-11T08:29:16;-1.00;71.00
37052;DHT22;22964;52.272;13.356;2024-01-11T08:31:44;-1.00;71.00
37052;DHT22;22964;52.272;13.356;2024-01-11T08:34:10;-1.00;71.00
37052;DHT22;22964;52.272;13.356;2024-01-11T08:36:36;-1.00;70.70
37052;DHT22;22964;52.272;13.356;2024-01-11T08:39:04;-1.00;70.70
37052;DHT22;22964;52.272;13.356;2024-01-11T08:41:36;-1.00;70.70
37052;DHT22;22964;52.272;13.356;2024-01-11T08:44:04;-0.90;71.00
37052;DHT22;22964;52.272;13.356;2024-01-11T08:46:33;-1.00;70.80
37052;DHT22;22964;52.272;13.356;2024-01-11T08:48:59;-0.90;70.80
37052;DHT22;22964;52.272;13.356;2024-01-11T08:51:27;-0.90;70.80
37052;DHT22;22964;52.272;13.356;2024-01-11T08:53:52;-0.90;71.00
37052;DHT22;22964;52.272;13.356;2024-01-11T08:56:18;-0.90;71.10
37052;DHT22;22964;52.272;13.356;2024-01-11T08:58:44;-0.80;71.10
37052;DHT22;22964;52.272;13.356;2024-01-11T09:01:11;-0.80;71.00
37052;DHT22;22964;52.272;13.356;2024-01-11T09:03:36;-0.80;71.30
37052;DHT22;22964;52.272;13.356;2024-01-11T09:06:03;-0.80;71.40
37052;DHT22;22964;52.272;13.356;2024-01-11T09:08:29;-0.80;71.40
37052;DHT22;22964;52.272;13.356;2024-01-11T09:10:56;-0.70;71.50
37052;DHT22;22964;52.272;13.356;2024-01-11T09:13:21;-0.70;71.50
37052;DHT22;22964;52.272;13.356;2024-01-11T09:15:47;-0.70;71.30
37052;DHT22;22964;52.272;13.356;2024-01-11T09:18:13;-0.70;71.60
37052;DHT22;22964;52.272;13.356;2024-01-11T09:20:38;-0.70;71.60
37052;DHT22;22964;52.272;13.356;2024-01-11T09:23:05;-0.60;71.80
37052;DHT22;22964;52.272;13.356;2024-01-11T09:25:31;-0.60;71.90
37052;DHT22;22964;52.272;13.356;2024-01-11T09:27:56;-0.60;71.80
37052;DHT22;22964;52.272;13.356;2024-01-11T09:30:22;-0.60;71.70
37052;DHT22;22964;52.272;13.356;2024-01-11T09:32:48;-0.50;71.80
37052;DHT22;22964;52.272;13.356;2024-01-11T09:35:14;-0.50;71.90
37052;DHT22;22964;52.272;13.356;2024-01-11T09:37:40;-0.50;71.90
37052;DHT22;22964;52.272;13.356;2024-01-11T09:40:06;-0.50;71.90
37052;DHT22;22964;52.272;13.356;2024-01-11T09:42:39;-0.40;71.80
37052;DHT22;22964;52.272;13.356;2024-01-11T09:45:12;-0.40;72.20
37052;DHT22;22964;52.272;13.356;2024-01-11T09:47:39;-0.40;72.00
37052;DHT22;22964;52.272;13.356;2024-01-11T09:50:08;-0.30;72.10
37052;DHT22;22964;52.272;13.356;2024-01-11T09:52:33;-0.30;72.10
37052;DHT22;22964;52.272;13.356;2024-01-11T09:55:00;-0.30;71.90
37052;DHT22;22964;52.272;13.356;2024-01-11T09:57:30;-0.30;72.00
37052;DHT22;22964;52.272;13.356;2024-01-11T09:59:57;-0.20;72.30
37052;DHT22;22964;52.272;13.356;2024-01-11T10:02:25;-0.20;72.20
37052;DHT22;22964;52.272;13.356;2024-01-11T10:04:55;-0.20;72.50
37052;DHT22;22964;52.272;13.356;2024-01-11T10:07:22;-0.10;72.60
37052;DHT22;22964;52.272;13.356;2024-01-11T10:09:48;-0.10;72.60
37052;DHT22;22964;52.272;13.356;2024-01-11T10:12:15;-0.10;72.50
37052;DHT22;22964;52.272;13.356;2024-01-11T10:14:42;0.00;72.60
37052;DHT22;22964;52.272;13.356;2024-01-11T10:17:08;0.00;72.40
37052;DHT22;22964;52.272;13.356;2024-01-11T10:19:34;0.00;72.40
37052;DHT22;22964;52.272;13.356;2024-01-11T10:21:59;0.10;72.50
37052;DHT22;22964;52.272;13.356;2024-01-11T10:24:25;0.10;72.20
37052;DHT22;22964;52.272;13.356;2024-01-11T10:26:55;0.10;73.10
37052;DHT22;22964;52.272;13.356;2024-01-11T10:29:21;0.10;72.60
37052;DHT22;22964;52.272;13.356;2024-01-11T10:31:47;0.20;72.60
37052;DHT22;22964;52.272;13.356;2024-01-11T10:34:13;0.20;72.40
37052;DHT22;22964;52.272;13.356;2024-01-11T10:36:39;0.20;72.50
37052;DHT22;22964;52.272;13.356;2024-01-11T10:39:07;0.30;72.50
37052;DHT22;22964;52.272;13.356;2024-01-11T10:41:39;0.30;72.70
37052;DHT22;22964;52.272;13.356;2024-01-11T10:44:25;0.40;72.90
37052;DHT22;22964;52.272;13.356;2024-01-11T10:46:55;0.40;72.80
37052;DHT22;22964;52.272;13.356;2024-01-11T10:49:23;0.40;72.80
37052;DHT22;22964;52.272;13.356;2024-01-11T10:52:01;0.50;72.70
37052;DHT22;22964;52.272;13.356;2024-01-11T10:54:28;0.50;72.80
37052;DHT22;22964;52.272;13.356;2024-01-11T10:56:57;0.50;72.50
37052;DHT22;22964;52.272;13.356;2024-01-11T10:59:28;0.50;72.50
37052;DHT22;22964;52.272;13.356;2024-01-11T11:01:57;0.60;72.90
37052;DHT22;22964;52.272;13.356;2024-01-11T11:04:24;0.60;73.80
37052;DHT22;22964;52.272;13.356;2024-01-11T11:06:56;0.60;72.60
37052;DHT22;22964;52.272;13.356;2024-01-11T11:09:24;0.60;72.70
37052;DHT22;22964;52.272;13.356;2024-01-11T11:11:53;0.70;72.60
37052;DHT22;22964;52.272;13.356;2024-01-11T11:14:22;0.70;72.70
37052;DHT22;22964;52.272;13.356;2024-01-11T11:16:48;0.70;72.60
37052;DHT22;22964;52.272;13.356;2024-01-11T11:19:14;0.80;72.90
37052;DHT22;22964;52.272;13.356;2024-01-11T11:21:44;0.80;72.90
37052;DHT22;22964;52.272;13.356;2024-01-11T11:24:11;0.80;72.90
37052;DHT22;22964;52.272;13.356;2024-01-11T11:26:37;0.80;72.90
37052;DHT22;22964;52.272;13.356;2024-01-11T11:29:05;0.90;72.80
37052;DHT22;22964;52.272;13.356;2024-01-11T11:31:41;0.90;72.90
37052;DHT22;22964;52.272;13.356;2024-01-11T11:34:07;1.00;72.90
37052;DHT22;22964;52.272;13.356;2024-01-11T11:36:36;1.00;72.90
37052;DHT22;22964;52.272;13.356;2024-01-11T11:39:02;1.00;72.70
37052;DHT22;22964;52.272;13.356;2024-01-11T11:41:31;1.10;72.80
37052;DHT22;22964;52.272;13.356;2024-01-11T11:44:01;1.10;73.00
37052;DHT22;22964;52.272;13.356;2024-01-11T11:46:28;1.10;73.00
37052;DHT22;22964;52.272;13.356;2024-01-11T11:48:54;1.20;73.10
37052;DHT22;22964;52.272;13.356;2024-01-11T11:51:22;1.20;73.20
37052;DHT22;22964;52.272;13.356;2024-01-11T11:53:48;1.20;73.20
37052;DHT22;22964;52.272;13.356;2024-01-11T11:56:17;1.30;73.20
37052;DHT22;22964;52.272;13.356;2024-01-11T11:58:44;1.40;73.40
37052;DHT22;22964;52.272;13.356;2024-01-11T12:01:11;1.40;73.50
37052;DHT22;22964;52.272;13.356;2024-01-11T12:03:38;1.40;73.40
37052;DHT22;22964;52.272;13.356;2024-01-11T12:06:05;1.40;73.20
37052;DHT22;22964;52.272;13.356;2024-01-11T12:08:32;1.40;73.20
37052;DHT22;22964;52.272;13.356;2024-01-11T12:10:58;1.50;73.30
37052;DHT22;22964;52.272;13.356;2024-01-11T12:13:25;1.50;73.30
37052;DHT22;22964;52.272;13.356;2024-01-11T12:15:51;1.50;73.30
37052;DHT22;22964;52.272;13.356;2024-01-11T12:18:17;1.60;73.30
37052;DHT22;22964;52.272;13.356;2024-01-11T12:20:43;1.50;73.50
37052;DHT22;22964;52.272;13.356;2024-01-11T12:23:09;1.50;73.50
37052;DHT22;22964;52.272;13.356;2024-01-11T12:25:35;1.60;73.50
37052;DHT22;22964;52.272;13.356;2024-01-11T12:28:01;1.60;73.50
37052;DHT22;22964;52.272;13.356;2024-01-11T12:30:27;1.60;73.20
37052;DHT22;22964;52.272;13.356;2024-01-11T12:32:53;1.70;73.20
37052;DHT22;22964;52.272;13.356;2024-01-11T12:35:20;1.70;73.40
37052;DHT22;22964;52.272;13.356;2024-01-11T12:37:53;1.70;73.30
37052;DHT22;22964;52.272;13.356;2024-01-11T12:40:19;1.70;73.50
37052;DHT22;22964;52.272;13.356;2024-01-11T12:42:45;1.70;73.40
37052;DHT22;22964;52.272;13.356;2024-01-11T12:45:11;1.80;73.40
37052;DHT22;22964;52.272;13.356;2024-01-11T12:47:38;1.80;73.40
37052;DHT22;22964;52.272;13.356;2024-01-11T12:50:04;1.80;73.30
37052;DHT22;22964;52.272;13.356;2024-01-11T12:52:30;1.80;73.50
37052;DHT22;22964;52.272;13.356;2024-01-11T12:54:56;1.80;73.10
37052;DHT22;22964;52.272;13.356;2024-01-11T12:57:25;1.80;73.20
37052;DHT22;22964;52.272;13.356;2024-01-11T12:59:52;1.80;73.20
37052;DHT22;22964;52.272;13.356;2024-01-11T13:02:18;1.80;73.20
37052;DHT22;22964;52.272;13.356;2024-01-11T13:04:45;1.80;73.50
37052;DHT22;22964;52.272;13.356;2024-01-11T13:07:12;1.80;73.30
37052;DHT22;22964;52.272;13.356;2024-01-11T13:09:38;1.80;73.10
37052;DHT22;22964;52.272;13.356;2024-01-11T13:12:05;1.80;73.20
37052;DHT22;22964;52.272;13.356;2024-01-11T13:14:30;1.80;73.20
37052;DHT22;22964;52.272;13.356;2024-01-11T13:16:57;1.80;73.10
37052;DHT22;22964;52.272;13.356;2024-01-11T13:19:23;1.80;73.30
37052;DHT22;22964;52.272;13.356;2024-01-11T13:21:49;1.80;73.30
37052;DHT22;22964;52.272;13.356;2024-01-11T13:24:15;1.80;73.40
37052;DHT22;22964;52.272;13.356;2024-01-11T13:26:41;1.80;73.30
37052;DHT22;22964;52.272;13.356;2024-01-11T13:29:06;1.80;73.40
37052;DHT22;22964;52.272;13.356;2024-01-11T13:31:32;1.80;73.50
37052;DHT22;22964;52.272;13.356;2024-01-11T13:33:59;1.80;73.70
37052;DHT22;22964;52.272;13.356;2024-01-11T13:36:25;1.80;73.60
37052;DHT22;22964;52.272;13.356;2024-01-11T13:38:51;1.90;74.00
37052;DHT22;22964;52.272;13.356;2024-01-11T13:41:16;1.90;73.90
37052;DHT22;22964;52.272;13.356;2024-01-11T13:43:45;1.80;74.00
37052;DHT22;22964;52.272;13.356;2024-01-11T13:46:11;1.90;74.00
37052;DHT22;22964;52.272;13.356;2024-01-11T13:48:39;1.90;73.90
37052;DHT22;22964;52.272;13.356;2024-01-11T13:51:05;1.90;74.00
37052;DHT22;22964;52.272;13.356;2024-01-11T13:53:33;1.90;74.20
37052;DHT22;22964;52.272;13.356;2024-01-11T13:55:58;1.90;74.10
37052;DHT22;22964;52.272;13.356;2024-01-11T13:58:24;2.00;74.40
37052;DHT22;22964;52.272;13.356;2024-01-11T14:00:50;1.90;74.30
37052;DHT22;22964;52.272;13.356;2024-01-11T14:03:16;2.00;74.30
37052;DHT22;22964;52.272;13.356;2024-01-11T14:05:41;2.00;74.30
37052;DHT22;22964;52.272;13.356;2024-01-11T14:08:07;2.00;74.20
37052;DHT22;22964;52.272;13.356;2024-01-11T14:10:34;2.10;74.30
37052;DHT22;22964;52.272;13.356;2024-01-11T14:13:00;2.10;74.40
37052;DHT22;22964;52.272;13.356;2024-01-11T14:15:27;2.10;74.20
37052;DHT22;22964;52.272;13.356;2024-01-11T14:17:53;2.10;74.20
37052;DHT22;22964;52.272;13.356;2024-01-11T14:20:19;2.10;73.90
37052;DHT22;22964;52.272;13.356;2024-01-11T14:22:47;2.10;74.20
37052;DHT22;22964;52.272;13.356;2024-01-11T14:25:19;2.10;73.90
37052;DHT22;22964;52.272;13.356;2024-01-11T14:27:45;2.10;74.30
37052;DHT22;22964;52.272;13.356;2024-01-11T14:30:12;2.10;74.00
37052;DHT22;22964;52.272;13.356;2024-01-11T14:32:38;2.10;74.10
37052;DHT22;22964;52.272;13.356;2024-01-11T14:35:05;2.10;74.00
37052;DHT22;22964;52.272;13.356;2024-01-11T14:37:31;2.10;74.00
37052;DHT22;22964;52.272;13.356;2024-01-11T14:39:57;2.10;74.10
37052;DHT22;22964;52.272;13.356;2024-01-11T14:42:24;2.10;74.10
37052;DHT22;22964;52.272;13.356;2024-01-11T14:44:50;2.10;74.10
37052;DHT22;22964;52.272;13.356;2024-01-11T14:47:16;2.10;73.90
37052;DHT22;22964;52.272;13.356;2024-01-11T14:49:41;2.10;74.10
37052;DHT22;22964;52.272;13.356;2024-01-11T14:52:07;2.10;74.40
37052;DHT22;22964;52.272;13.356;2024-01-11T14:54:33;2.10;74.50
37052;DHT22;22964;52.272;13.356;2024-01-11T14:56:59;2.20;74.40
37052;DHT22;22964;52.272;13.356;2024-01-11T14:59:24;2.10;74.20
37052;DHT22;22964;52.272;13.356;2024-01-11T15:01:50;2.20;74.40
37052;DHT22;22964;52.272;13.356;2024-01-11T15:04:16;2.10;74.30
37052;DHT22;22964;52.272;13.356;2024-01-11T15:06:42;2.10;74.30
37052;DHT22;22964;52.272;13.356;2024-01-11T15:09:07;2.20;74.30
37052;DHT22;22964;52.272;13.356;2024-01-11T15:11:38;2.10;74.30
37052;DHT22;22964;52.272;13.356;2024-01-11T15:14:05;2.20;74.30
37052;DHT22;22964;52.272;13.356;2024-01-11T15:16:32;2.20;74.30